Time;durP1;ratioP1;P1;durP2;ratioP2;P2;SDS_P1;SDS_P2;PMS_P1;PMS_P2;Temp;Humidity;BMP_temperature;BMP_pressure;BME280_temperature;BME280_humidity;BME280_pressure;Samples;Min_cycle;Max_cycle;Signal;HPM_P1;HPM_P2
2021/11/15 00:01:52;;;;;;;37.80;18.50;;;8.20;99.90;;;;;;4917931;23;21068;-57
2021/11/15 00:04:21;;;;;;;38.07;17.07;;;8.30;99.90;;;;;;4910555;29;20526;-57
2021/11/15 00:06:49;;;;;;;45.50;19.30;;;8.20;99.90;;;;;;4917007;23;20487;-50
2021/11/15 00:09:16;;;;;;;44.17;19.67;;;8.30;99.90;;;;;;4910279;29;20489;-55
2021/11/15 00:11:43;;;;;;;43.83;16.90;;;8.30;99.90;;;;;;4917035;23;20458;-54
2021/11/15 00:14:10;;;;;;;35.83;16.43;;;8.30;99.90;;;;;;4911123;29;20526;-58
2021/11/15 00:16:37;;;;;;;45.53;18.83;;;8.30;99.90;;;;;;4910488;29;20823;-56
2021/11/15 00:19:05;;;;;;;40.03;18.27;;;8.30;99.90;;;;;;4916705;23;20506;-58
2021/11/15 00:21:31;;;;;;;47.50;19.47;;;8.40;99.90;;;;;;4910123;29;20455;-57
2021/11/15 00:24:00;;;;;;;44.93;18.30;;;8.30;99.90;;;;;;4931162;23;20506;-52
2021/11/15 00:26:27;;;;;;;53.87;21.57;;;8.30;99.90;;;;;;4909800;29;20447;-58
2021/11/15 00:28:54;;;;;;;39.43;16.63;;;8.30;99.90;;;;;;4917279;23;20493;-58
2021/11/15 00:31:22;;;;;;;45.67;19.07;;;8.30;99.90;;;;;;4909826;29;20477;-56
2021/11/15 00:33:50;;;;;;;49.23;20.20;;;8.30;99.90;;;;;;4917806;23;20811;-57
2021/11/15 00:36:17;;;;;;;48.63;20.10;;;8.40;99.90;;;;;;4909631;29;20533;-52
2021/11/15 00:38:44;;;;;;;41.00;17.40;;;8.40;99.90;;;;;;4908716;23;20486;-54
2021/11/15 00:41:12;;;;;;;38.33;17.77;;;8.30;99.90;;;;;;4890965;29;20482;-54
2021/11/15 00:43:39;;;;;;;31.90;15.87;;;8.30;99.90;;;;;;4914958;23;20531;-53
2021/11/15 00:46:06;;;;;;;49.10;19.37;;;8.30;99.90;;;;;;4897330;29;20459;-57
2021/11/15 00:48:33;;;;;;;34.03;14.80;;;8.30;99.90;;;;;;4907571;23;20510;-57
2021/11/15 00:51:00;;;;;;;44.97;19.30;;;8.30;99.90;;;;;;4916089;29;20461;-51
2021/11/15 00:53:27;;;;;;;41.93;19.20;;;8.30;99.90;;;;;;4937415;23;20438;-57
2021/11/15 00:55:54;;;;;;;61.87;19.57;;;8.30;99.90;;;;;;4898334;29;20475;-49
2021/11/15 01:00:56;;;;;;;42.20;18.67;;;8.20;99.90;;;;;;4902737;23;20510;-55
2021/11/15 01:03:24;;;;;;;56.50;19.50;;;8.20;99.90;;;;;;4898399;29;20504;-55
2021/11/15 01:05:51;;;;;;;44.50;21.27;;;8.20;99.90;;;;;;4935799;23;20502;-55
2021/11/15 01:08:19;;;;;;;47.23;18.47;;;8.30;99.90;;;;;;4916054;29;20774;-54
2021/11/15 01:10:49;;;;;;;42.80;19.67;;;8.30;99.90;;;;;;4923344;23;20489;-55
2021/11/15 01:13:16;;;;;;;36.00;17.80;;;8.20;99.90;;;;;;4916184;29;20435;-56
2021/11/15 01:15:43;;;;;;;43.07;17.70;;;8.30;99.90;;;;;;4922400;23;20485;-54
2021/11/15 01:18:12;;;;;;;36.70;16.97;;;8.30;99.90;;;;;;4915953;29;20482;-54
2021/11/15 01:20:39;;;;;;;38.53;18.70;;;8.20;99.90;;;;;;4922938;23;20493;-56
2021/11/15 01:23:09;;;;;;;39.03;16.50;;;8.30;99.90;;;;;;4916096;29;20458;-53
2021/11/15 01:25:42;;;;;;;33.37;14.53;;;8.30;99.90;;;;;;4913795;23;21007;-52
2021/11/15 01:28:10;;;;;;;39.70;17.30;;;8.20;99.90;;;;;;4896971;29;20474;-58
2021/11/15 01:30:37;;;;;;;49.20;17.93;;;8.20;99.90;;;;;;4911424;23;20867;-48
2021/11/15 01:33:05;;;;;;;48.57;18.50;;;8.20;99.90;;;;;;4915925;29;20426;-54
2021/11/15 01:35:33;;;;;;;39.27;18.07;;;8.20;99.90;;;;;;4915678;29;20525;-55
2021/11/15 01:38:00;;;;;;;43.87;19.03;;;8.20;99.90;;;;;;4915855;29;20802;-51
2021/11/15 01:40:30;;;;;;;38.67;16.67;;;8.30;99.90;;;;;;4915887;29;20461;-53
2021/11/15 01:42:57;;;;;;;37.67;16.90;;;8.30;99.90;;;;;;4915555;29;20462;-57
2021/11/15 01:45:26;;;;;;;38.90;16.47;;;8.30;99.90;;;;;;4915895;29;20458;-54
2021/11/15 01:47:54;;;;;;;42.73;17.60;;;8.30;99.90;;;;;;4915833;29;20478;-57
2021/11/15 01:50:22;;;;;;;36.73;16.03;;;8.30;99.90;;;;;;4915602;29;20489;-53
2021/11/15 01:52:50;;;;;;;35.90;16.77;;;8.30;99.90;;;;;;4915246;29;20458;-56
2021/11/15 01:55:19;;;;;;;45.07;18.30;;;8.30;99.90;;;;;;4914336;29;20442;-56
2021/11/15 01:57:48;;;;;;;38.87;16.60;;;8.30;99.90;;;;;;4912239;29;20497;-55
2021/11/15 02:00:21;;;;;;;38.70;15.70;;;8.20;99.90;;;;;;4912666;29;20985;-56
2021/11/15 02:02:47;;;;;;;34.40;15.90;;;8.20;99.90;;;;;;4912258;29;20471;-58
2021/11/15 02:05:14;;;;;;;43.10;19.70;;;8.30;99.90;;;;;;4912385;29;20507;-57
2021/11/15 02:07:41;;;;;;;37.80;17.70;;;8.20;99.90;;;;;;4912563;29;20450;-57
2021/11/15 02:10:10;;;;;;;45.93;20.20;;;8.20;99.90;;;;;;4913136;29;20507;-53
2021/11/15 02:12:37;;;;;;;43.67;16.27;;;8.20;99.90;;;;;;4913113;29;20454;-49
2021/11/15 02:15:06;;;;;;;37.77;16.17;;;8.20;99.90;;;;;;4912367;29;20454;-49
2021/11/15 02:17:33;;;;;;;37.73;14.57;;;8.20;99.90;;;;;;4912538;29;20538;-57
2021/11/15 02:20:05;;;;;;;35.80;17.03;;;8.20;99.90;;;;;;4912493;29;20482;-58
2021/11/15 02:22:33;;;;;;;40.93;17.87;;;8.20;99.90;;;;;;4912914;29;20427;-56
2021/11/15 02:25:02;;;;;;;42.60;17.80;;;8.20;99.90;;;;;;4912796;29;20649;-57
2021/11/15 02:27:28;;;;;;;31.17;14.50;;;8.20;99.90;;;;;;4912688;29;20506;-52
2021/11/15 02:29:58;;;;;;;29.50;13.97;;;8.10;99.90;;;;;;4912223;29;20462;-57
2021/11/15 02:32:26;;;;;;;33.30;16.20;;;8.10;99.90;;;;;;4912352;29;20485;-56
2021/11/15 02:34:53;;;;;;;26.43;13.37;;;8.10;99.90;;;;;;4913186;29;20489;-53
2021/11/15 02:37:19;;;;;;;42.37;14.20;;;8.20;99.90;;;;;;4912139;29;20490;-56
2021/11/15 02:39:47;;;;;;;41.33;18.73;;;8.10;99.90;;;;;;4912816;29;20439;-56
2021/11/15 02:42:16;;;;;;;36.10;14.60;;;8.10;99.90;;;;;;4912564;29;20490;-56
2021/11/15 02:44:42;;;;;;;35.47;15.03;;;8.10;99.90;;;;;;4912623;29;20483;-56
2021/11/15 02:47:09;;;;;;;45.57;18.30;;;8.10;99.90;;;;;;4911491;29;20442;-49
2021/11/15 02:49:36;;;;;;;37.03;14.60;;;8.20;99.90;;;;;;4911807;29;20511;-54
2021/11/15 02:52:03;;;;;;;40.20;15.83;;;8.20;99.90;;;;;;4912116;29;20495;-51
2021/11/15 02:54:30;;;;;;;41.73;15.03;;;8.20;99.90;;;;;;4911679;29;20486;-53
2021/11/15 02:56:58;;;;;;;33.93;15.57;;;8.20;99.90;;;;;;4911654;29;20482;-57
2021/11/15 02:59:24;;;;;;;34.77;15.60;;;8.20;99.90;;;;;;4911583;29;20920;-52
2021/11/15 03:01:51;;;;;;;39.70;18.23;;;8.20;99.90;;;;;;4911728;29;20450;-58
2021/11/15 03:04:18;;;;;;;30.33;16.03;;;8.20;99.90;;;;;;4911566;29;20461;-55
2021/11/15 03:06:45;;;;;;;26.77;14.50;;;8.20;99.90;;;;;;4911206;29;20447;-59
2021/11/15 03:09:12;;;;;;;42.60;16.77;;;8.20;99.90;;;;;;4911242;29;20800;-53
2021/11/15 03:11:38;;;;;;;42.83;17.67;;;8.20;99.90;;;;;;4911163;29;20485;-53
2021/11/15 03:14:08;;;;;;;41.70;16.70;;;8.20;99.90;;;;;;4911944;29;20592;-54
2021/11/15 03:16:35;;;;;;;34.47;15.67;;;8.20;99.90;;;;;;4911004;29;20506;-52
2021/11/15 03:19:02;;;;;;;35.73;17.00;;;8.20;99.90;;;;;;4911444;29;20451;-58
2021/11/15 03:21:29;;;;;;;30.70;14.50;;;8.20;99.90;;;;;;4911732;29;20446;-52
2021/11/15 03:23:57;;;;;;;39.50;17.47;;;8.20;99.90;;;;;;4911855;29;20494;-55
2021/11/15 03:26:25;;;;;;;42.87;17.87;;;8.20;99.90;;;;;;4910842;29;20479;-57
2021/11/15 03:28:55;;;;;;;36.03;15.67;;;8.20;99.90;;;;;;4911290;29;20462;-58
2021/11/15 03:31:25;;;;;;;34.47;16.10;;;8.20;99.90;;;;;;4910952;29;20510;-55
2021/11/15 03:33:55;;;;;;;40.40;17.60;;;8.10;99.90;;;;;;4910954;29;20518;-57
2021/11/15 03:36:22;;;;;;;30.03;14.63;;;8.20;99.90;;;;;;4911413;29;20482;-56
2021/11/15 03:38:48;;;;;;;38.90;17.03;;;8.20;99.90;;;;;;4911444;29;20632;-55
2021/11/15 03:41:16;;;;;;;42.37;16.43;;;8.20;99.90;;;;;;4911716;29;20431;-55
2021/11/15 03:43:43;;;;;;;43.70;14.47;;;8.30;99.90;;;;;;4910522;29;20466;-49
2021/11/15 03:46:10;;;;;;;34.13;17.93;;;8.20;99.90;;;;;;4910843;29;20451;-57
2021/11/15 03:48:38;;;;;;;36.83;16.67;;;8.20;99.90;;;;;;4910895;29;20515;-51
2021/11/15 03:51:05;;;;;;;39.43;16.90;;;8.20;99.90;;;;;;4911631;29;20482;-55
2021/11/15 03:53:35;;;;;;;35.23;13.80;;;8.20;99.90;;;;;;4911734;29;20462;-55
2021/11/15 03:56:03;;;;;;;36.87;17.97;;;8.20;99.90;;;;;;4911219;29;20485;-52
2021/11/15 03:58:30;;;;;;;36.23;16.43;;;8.20;99.90;;;;;;4910574;29;20466;-54
2021/11/15 04:00:58;;;;;;;36.23;14.53;;;8.20;99.90;;;;;;4910291;29;20475;-54
2021/11/15 04:03:31;;;;;;;39.37;17.40;;;8.20;99.90;;;;;;4911362;29;20785;-51
2021/11/15 04:06:03;;;;;;;51.67;18.93;;;8.20;99.90;;;;;;4911302;29;20477;-55
2021/11/15 04:08:31;;;;;;;40.57;16.70;;;8.20;99.90;;;;;;4911206;29;20447;-53
2021/11/15 04:10:58;;;;;;;44.40;17.20;;;8.20;99.90;;;;;;4910937;29;20455;-54
2021/11/15 04:13:26;;;;;;;37.97;15.53;;;8.20;99.90;;;;;;4910544;29;20782;-57
2021/11/15 04:15:57;;;;;;;36.27;17.57;;;8.20;99.90;;;;;;4910716;29;20795;-53
2021/11/15 04:18:29;;;;;;;32.63;15.97;;;8.10;99.90;;;;;;4909401;29;20498;-56
2021/11/15 04:20:59;;;;;;;41.47;17.00;;;8.10;99.90;;;;;;4910281;29;20454;-52
2021/11/15 04:23:26;;;;;;;38.00;16.63;;;8.10;99.90;;;;;;4910243;29;20833;-58
2021/11/15 04:25:53;;;;;;;32.60;15.13;;;8.10;99.90;;;;;;4910750;29;20485;-54
2021/11/15 04:28:20;;;;;;;40.87;17.13;;;8.20;99.90;;;;;;4911285;29;20454;-57
2021/11/15 04:30:47;;;;;;;39.07;17.00;;;8.10;99.90;;;;;;4910451;29;20522;-49
2021/11/15 04:33:16;;;;;;;40.80;18.13;;;8.10;99.90;;;;;;4910610;29;20489;-57
2021/11/15 04:35:43;;;;;;;43.97;18.60;;;8.10;99.90;;;;;;4910307;29;20499;-54
2021/11/15 04:38:11;;;;;;;43.23;19.37;;;8.10;99.90;;;;;;4910657;29;20498;-54
2021/11/15 04:40:39;;;;;;;34.03;14.43;;;8.10;99.90;;;;;;4909907;29;20446;-57
2021/11/15 04:43:06;;;;;;;39.63;16.20;;;8.10;99.90;;;;;;4910539;29;20482;-55
2021/11/15 04:45:33;;;;;;;33.00;16.63;;;8.10;99.90;;;;;;4909778;29;20482;-56
2021/11/15 04:48:00;;;;;;;44.07;17.70;;;8.10;99.90;;;;;;4909963;29;20961;-56
2021/11/15 04:50:26;;;;;;;37.53;15.93;;;8.00;99.90;;;;;;4910138;29;20446;-56
2021/11/15 04:52:53;;;;;;;37.87;16.40;;;8.00;99.90;;;;;;4910122;29;20435;-55
2021/11/15 04:55:23;;;;;;;41.27;17.63;;;8.00;99.90;;;;;;4910425;29;20478;-57
2021/11/15 04:57:50;;;;;;;46.83;16.23;;;8.00;99.90;;;;;;4909766;29;20498;-56
2021/11/15 05:00:23;;;;;;;49.47;19.67;;;8.10;99.90;;;;;;4909331;29;20453;-53
2021/11/15 05:02:50;;;;;;;36.87;15.07;;;8.10;99.90;;;;;;4910298;29;20478;-53
2021/11/15 05:05:18;;;;;;;36.60;16.33;;;8.00;99.90;;;;;;4911132;29;20446;-55
2021/11/15 05:07:46;;;;;;;53.80;18.20;;;8.10;99.90;;;;;;4909607;29;20511;-55
2021/11/15 05:10:14;;;;;;;40.20;18.30;;;8.10;99.90;;;;;;4910234;29;20753;-51
2021/11/15 05:12:42;;;;;;;36.30;16.80;;;8.00;99.90;;;;;;4910406;29;20546;-55
2021/11/15 05:15:11;;;;;;;40.10;17.60;;;8.00;99.90;;;;;;4910582;29;20450;-53
2021/11/15 05:17:38;;;;;;;36.60;17.07;;;8.00;99.90;;;;;;4909171;29;20494;-56
2021/11/15 05:20:07;;;;;;;39.30;17.93;;;8.00;99.90;;;;;;4909697;29;20450;-57
2021/11/15 05:22:34;;;;;;;42.23;15.80;;;8.00;99.90;;;;;;4910112;29;20486;-56
2021/11/15 05:25:01;;;;;;;40.33;16.43;;;8.10;99.90;;;;;;4910354;29;20482;-54
2021/11/15 05:27:28;;;;;;;31.40;16.40;;;8.00;99.90;;;;;;4909771;29;20446;-54
2021/11/15 05:29:57;;;;;;;43.73;17.80;;;8.00;99.90;;;;;;4909832;29;20514;-54
2021/11/15 05:32:24;;;;;;;39.87;17.07;;;8.00;99.90;;;;;;4912780;29;20548;-53
2021/11/15 05:34:51;;;;;;;40.63;18.57;;;8.10;99.90;;;;;;4913481;29;20454;-56
2021/11/15 05:37:19;;;;;;;37.03;16.17;;;8.00;99.90;;;;;;4913288;29;21002;-58
2021/11/15 05:39:46;;;;;;;39.27;17.27;;;8.10;99.90;;;;;;4920238;23;20505;-57
2021/11/15 05:42:13;;;;;;;31.37;15.83;;;8.10;99.90;;;;;;4913151;29;20494;-53
2021/11/15 05:44:39;;;;;;;36.60;16.67;;;8.10;99.90;;;;;;4941319;23;20550;-52
2021/11/15 05:47:08;;;;;;;38.63;17.20;;;8.00;99.90;;;;;;4913067;29;20500;-53
2021/11/15 05:49:35;;;;;;;39.20;16.70;;;8.00;99.90;;;;;;4917451;23;20528;-51
2021/11/15 05:52:02;;;;;;;35.67;16.90;;;8.00;99.90;;;;;;4892252;29;20471;-49
2021/11/15 05:54:29;;;;;;;36.43;18.13;;;8.00;99.90;;;;;;4901427;23;20461;-54
2021/11/15 05:56:56;;;;;;;33.67;16.13;;;8.00;99.90;;;;;;4911667;29;20435;-52
2021/11/15 06:02:01;;;;;;;45.97;18.20;;;8.00;99.90;;;;;;4939317;23;20699;-49
2021/11/15 06:07:00;;;;;;;39.20;17.53;;;8.00;99.90;;;;;;4938681;23;20561;-46
2021/11/15 06:09:29;;;;;;;47.83;19.80;;;8.00;99.90;;;;;;4919596;29;20510;-51
2021/11/15 06:11:56;;;;;;;32.93;16.37;;;8.00;99.90;;;;;;4927636;23;20514;-49
2021/11/15 06:14:23;;;;;;;38.10;16.47;;;8.00;99.90;;;;;;4920328;29;20470;-52
2021/11/15 06:16:50;;;;;;;41.70;20.33;;;8.00;99.90;;;;;;4893694;23;20484;-57
2021/11/15 06:19:16;;;;;;;35.97;15.63;;;8.10;99.90;;;;;;4875303;29;20486;-57
2021/11/15 06:21:43;;;;;;;32.33;15.87;;;8.10;99.90;;;;;;4901270;23;20497;-57
2021/11/15 06:24:14;;;;;;;37.43;16.77;;;8.10;99.90;;;;;;4906413;29;20443;-56
2021/11/15 06:26:41;;;;;;;43.60;17.30;;;8.00;99.90;;;;;;4915278;23;20510;-56
2021/11/15 06:29:08;;;;;;;49.33;20.27;;;8.00;99.90;;;;;;4912338;29;20479;-55
2021/11/15 06:31:35;;;;;;;39.10;17.80;;;8.00;99.90;;;;;;4919267;23;20501;-56
2021/11/15 06:34:05;;;;;;;40.50;18.70;;;8.00;99.90;;;;;;4912332;29;20772;-56
2021/11/15 06:36:32;;;;;;;44.67;16.90;;;8.00;99.90;;;;;;4912120;29;20546;-54
2021/11/15 06:38:59;;;;;;;31.93;16.10;;;8.00;99.90;;;;;;4911656;29;20545;-58
2021/11/15 06:41:27;;;;;;;41.27;18.97;;;8.00;99.90;;;;;;4916641;23;20465;-53
2021/11/15 06:43:56;;;;;;;38.17;16.67;;;8.00;99.90;;;;;;4901287;29;20488;-50
2021/11/15 06:46:23;;;;;;;34.07;17.90;;;8.00;99.90;;;;;;4901448;29;20483;-51
2021/11/15 06:48:52;;;;;;;37.73;17.17;;;8.00;99.90;;;;;;4901198;29;20505;-55
2021/11/15 06:51:18;;;;;;;48.93;17.90;;;8.00;99.90;;;;;;4900843;29;20451;-52
2021/11/15 06:53:45;;;;;;;33.33;14.80;;;8.00;99.90;;;;;;4897607;29;20512;-50
2021/11/15 06:56:12;;;;;;;40.10;17.97;;;8.00;99.90;;;;;;4894571;29;20463;-57
2021/11/15 06:58:41;;;;;;;40.13;14.90;;;8.00;99.90;;;;;;4915461;23;20518;-57
2021/11/15 07:01:08;;;;;;;44.60;17.33;;;8.00;99.90;;;;;;4912695;29;20435;-54
2021/11/15 07:03:35;;;;;;;39.67;18.10;;;8.00;99.90;;;;;;4912281;29;20458;-45
2021/11/15 07:06:02;;;;;;;42.43;15.97;;;8.00;99.90;;;;;;4910685;29;20450;-57
2021/11/15 07:08:29;;;;;;;53.63;16.40;;;8.00;99.90;;;;;;4909182;23;20502;-58
2021/11/15 07:10:59;;;;;;;35.87;16.93;;;8.00;99.90;;;;;;4905224;29;20581;-57
2021/11/15 07:13:25;;;;;;;37.30;16.67;;;8.00;99.90;;;;;;4918304;23;20498;-57
2021/11/15 07:15:53;;;;;;;40.60;17.20;;;8.00;99.90;;;;;;4911430;29;20513;-53
2021/11/15 07:18:20;;;;;;;37.70;15.93;;;8.10;99.90;;;;;;4918769;23;20490;-58
2021/11/15 07:20:47;;;;;;;45.13;17.50;;;8.00;99.90;;;;;;4911106;29;20491;-58
2021/11/15 07:23:14;;;;;;;38.43;16.67;;;8.10;99.90;;;;;;4933216;23;20521;-57
2021/11/15 07:25:42;;;;;;;33.40;16.13;;;8.10;99.90;;;;;;4910445;29;20769;-52
2021/11/15 07:28:08;;;;;;;29.50;14.87;;;8.10;99.90;;;;;;4919862;23;20542;-54
2021/11/15 07:30:35;;;;;;;36.43;14.63;;;8.20;99.90;;;;;;4910752;29;20466;-58
2021/11/15 07:35:30;;;;;;;29.53;15.40;;;8.20;99.90;;;;;;4931377;23;20482;-54
2021/11/15 07:37:57;;;;;;;37.27;15.47;;;8.20;99.90;;;;;;4911422;29;20526;-54
2021/11/15 07:40:24;;;;;;;25.33;12.47;;;8.20;99.90;;;;;;4917394;23;20562;-58
2021/11/15 07:42:51;;;;;;;30.13;13.37;;;8.20;99.90;;;;;;4910505;29;20477;-54
2021/11/15 07:45:19;;;;;;;28.43;13.63;;;8.20;99.90;;;;;;4917931;23;20498;-50
2021/11/15 07:47:48;;;;;;;38.57;13.60;;;8.30;99.90;;;;;;4912923;29;20438;-51
2021/11/15 07:50:18;;;;;;;36.40;14.37;;;8.30;99.90;;;;;;4916879;23;20502;-58
2021/11/15 07:52:46;;;;;;;34.50;12.70;;;8.30;99.90;;;;;;4910222;29;20465;-53
2021/11/15 07:55:14;;;;;;;27.67;13.13;;;8.30;99.90;;;;;;4931379;23;20534;-54
2021/11/15 07:57:44;;;;;;;27.33;14.53;;;8.30;99.90;;;;;;4910109;29;20549;-56
2021/11/15 08:00:13;;;;;;;24.40;12.97;;;8.30;99.90;;;;;;4931849;23;20507;-58
2021/11/15 08:02:41;;;;;;;27.73;15.63;;;8.30;99.90;;;;;;4900640;29;20427;-45
2021/11/15 08:05:10;;;;;;;31.20;14.53;;;8.40;99.90;;;;;;4913589;23;20483;-58
2021/11/15 08:07:36;;;;;;;25.97;13.70;;;8.40;99.90;;;;;;4919777;29;20451;-44
2021/11/15 08:10:08;;;;;;;28.90;13.83;;;8.40;99.90;;;;;;4985701;23;20498;-42
2021/11/15 08:12:39;;;;;;;34.60;14.77;;;8.40;99.90;;;;;;4920008;29;20490;-54
2021/11/15 08:15:08;;;;;;;39.97;18.30;;;8.40;99.90;;;;;;4941771;23;20494;-49
2021/11/15 08:17:37;;;;;;;24.53;12.13;;;8.40;99.90;;;;;;4919812;29;20455;-45
2021/11/15 08:20:05;;;;;;;28.00;14.03;;;8.40;99.90;;;;;;4925800;23;20461;-51
2021/11/15 08:22:34;;;;;;;30.03;12.60;;;8.40;99.90;;;;;;4901258;29;20471;-55
2021/11/15 08:27:47;;;;;;;38.87;14.50;;;8.30;99.90;;;;;;4939223;23;21014;-51
2021/11/15 08:32:43;;;;;;;25.70;11.73;;;8.40;99.90;;;;;;4916015;23;20497;-59
2021/11/15 08:35:10;;;;;;;31.93;12.97;;;8.40;99.90;;;;;;4904070;29;20566;-57
2021/11/15 08:37:40;;;;;;;30.70;12.17;;;8.50;99.90;;;;;;4903520;29;20467;-56
2021/11/15 08:40:08;;;;;;;32.40;13.33;;;8.50;99.90;;;;;;4903935;29;20481;-58
2021/11/15 08:42:35;;;;;;;24.70;11.73;;;8.50;99.90;;;;;;4904123;29;20466;-55
2021/11/15 08:45:05;;;;;;;26.40;12.77;;;8.50;99.90;;;;;;4902704;29;20482;-62
2021/11/15 08:47:32;;;;;;;22.57;11.43;;;8.40;99.90;;;;;;4902485;29;20530;-61
2021/11/15 08:49:58;;;;;;;34.03;11.27;;;8.40;99.90;;;;;;4903414;29;20454;-59
2021/11/15 08:52:28;;;;;;;31.20;12.60;;;8.40;99.90;;;;;;4904069;29;20465;-59
2021/11/15 08:54:57;;;;;;;30.77;12.60;;;8.40;99.90;;;;;;4909664;29;20928;-55
2021/11/15 08:57:23;;;;;;;25.70;13.17;;;8.40;99.90;;;;;;4903645;29;20549;-58
2021/11/15 08:59:53;;;;;;;22.33;12.63;;;8.40;99.90;;;;;;4902871;29;20576;-56
2021/11/15 09:02:21;;;;;;;29.43;11.13;;;8.40;99.90;;;;;;4903712;29;20479;-60
2021/11/15 09:04:48;;;;;;;23.53;11.47;;;8.40;99.90;;;;;;4904085;29;20470;-59
2021/11/15 09:07:16;;;;;;;30.93;14.87;;;8.40;99.90;;;;;;4907963;29;20770;-59
2021/11/15 09:09:43;;;;;;;23.80;10.30;;;8.40;99.90;;;;;;4908471;29;20912;-55
2021/11/15 09:12:10;;;;;;;35.50;12.30;;;8.40;99.90;;;;;;4906917;29;20454;-57
2021/11/15 09:14:38;;;;;;;31.67;13.93;;;8.30;99.90;;;;;;4907331;29;20482;-51
2021/11/15 09:17:06;;;;;;;22.97;12.17;;;8.30;99.90;;;;;;4907298;29;20535;-52
2021/11/15 09:19:34;;;;;;;24.63;13.20;;;8.30;99.90;;;;;;4906601;29;20579;-59
2021/11/15 09:22:01;;;;;;;25.37;13.50;;;8.30;99.90;;;;;;4906832;29;20487;-58
2021/11/15 09:24:28;;;;;;;29.80;13.17;;;8.30;99.90;;;;;;4906803;29;20494;-59
2021/11/15 09:26:55;;;;;;;27.63;14.03;;;8.40;99.90;;;;;;4907112;29;20449;-60
2021/11/15 09:29:22;;;;;;;28.13;15.60;;;8.30;99.90;;;;;;4906031;29;20469;-58
2021/11/15 09:31:49;;;;;;;24.73;12.57;;;8.40;99.90;;;;;;4906425;29;20490;-57
2021/11/15 09:34:16;;;;;;;37.10;13.80;;;8.40;99.90;;;;;;4910510;29;20442;-57
2021/11/15 09:36:44;;;;;;;37.10;12.97;;;8.40;99.90;;;;;;4908145;29;20483;-54
2021/11/15 09:39:14;;;;;;;33.33;12.13;;;8.40;99.90;;;;;;4913882;29;20671;-53
2021/11/15 09:41:45;;;;;;;29.90;12.63;;;8.40;99.90;;;;;;4909561;29;20495;-53
2021/11/15 09:44:12;;;;;;;27.50;12.83;;;8.40;99.90;;;;;;4923754;23;20537;-56
2021/11/15 09:46:39;;;;;;;24.57;12.63;;;8.40;99.90;;;;;;4890279;29;20523;-56
2021/11/15 09:49:10;;;;;;;22.97;12.80;;;8.40;99.90;;;;;;4902671;23;20505;-54
2021/11/15 09:51:37;;;;;;;28.63;15.50;;;8.40;99.90;;;;;;4909504;29;20920;-51
2021/11/15 09:54:10;;;;;;;32.67;13.20;;;8.40;99.90;;;;;;4914641;29;20501;-56
2021/11/15 09:56:39;;;;;;;37.57;14.20;;;8.30;99.90;;;;;;4908856;29;20454;-55
2021/11/15 09:59:10;;;;;;;21.17;11.03;;;8.40;99.90;;;;;;4908233;29;20508;-53
2021/11/15 10:01:37;;;;;;;33.17;12.37;;;8.40;99.90;;;;;;4907976;29;20443;-55
2021/11/15 10:04:04;;;;;;;31.40;14.27;;;8.40;99.90;;;;;;4907998;29;20474;-56
2021/11/15 10:06:31;;;;;;;34.97;13.40;;;8.40;99.90;;;;;;4907586;29;20489;-56
2021/11/15 10:09:00;;;;;;;35.33;11.90;;;8.30;99.90;;;;;;4907627;29;20466;-57
2021/11/15 10:11:40;;;;;;;33.27;12.40;;;8.40;99.90;;;;;;4908211;29;20517;-55
2021/11/15 10:14:07;;;;;;;40.40;11.70;;;8.30;99.90;;;;;;4907605;29;20430;-54
2021/11/15 10:16:34;;;;;;;21.70;11.10;;;8.30;99.90;;;;;;4906691;29;20477;-56
2021/11/15 10:19:05;;;;;;;25.20;9.90;;;8.30;99.90;;;;;;4908197;29;20510;-52
2021/11/15 10:21:35;;;;;;;26.53;12.63;;;8.30;99.90;;;;;;4908171;29;20832;-54
2021/11/15 10:24:06;;;;;;;29.93;13.37;;;8.40;99.90;;;;;;4908153;29;20551;-55
2021/11/15 10:26:38;;;;;;;23.30;12.00;;;8.30;99.90;;;;;;4908397;29;20475;-58
2021/11/15 10:29:10;;;;;;;35.40;14.03;;;8.30;99.90;;;;;;4908038;29;20449;-57
2021/11/15 10:31:41;;;;;;;31.10;12.07;;;8.40;99.90;;;;;;4907725;29;20439;-57
2021/11/15 10:34:10;;;;;;;21.43;11.37;;;8.30;99.90;;;;;;4908018;29;20447;-57
2021/11/15 10:36:59;;;;;;;29.37;13.97;;;8.40;99.90;;;;;;4907385;29;20461;-57
2021/11/15 10:39:30;;;;;;;25.87;11.73;;;8.40;99.90;;;;;;4907788;29;20500;-57
2021/11/15 10:42:07;;;;;;;32.00;13.17;;;8.40;99.90;;;;;;4907327;29;20477;-56
2021/11/15 10:44:38;;;;;;;31.80;11.57;;;8.30;99.90;;;;;;4907681;29;20581;-55
2021/11/15 10:47:05;;;;;;;23.70;11.20;;;8.30;99.90;;;;;;4910186;29;20443;-57
2021/11/15 10:49:33;;;;;;;35.53;13.30;;;8.30;99.90;;;;;;4915958;29;20458;-55
2021/11/15 10:52:02;;;;;;;30.20;11.40;;;8.30;99.90;;;;;;4916008;29;20478;-53
2021/11/15 10:57:32;;;;;;;28.77;12.23;;;8.40;99.90;;;;;;4914495;29;20434;-57
2021/11/15 11:00:12;;;;;;;33.17;13.97;;;8.40;99.90;;;;;;4916556;29;20470;-56
2021/11/15 11:02:45;;;;;;;24.80;11.23;;;8.40;99.90;;;;;;4915411;29;20478;-55
2021/11/15 11:05:14;;;;;;;26.13;11.63;;;8.30;99.90;;;;;;4917325;29;20522;-51
2021/11/15 11:07:46;;;;;;;27.20;10.83;;;8.30;99.90;;;;;;4909273;29;20454;-53
2021/11/15 11:10:19;;;;;;;27.47;14.47;;;8.30;99.90;;;;;;4912116;23;20445;-56
2021/11/15 11:13:01;;;;;;;27.50;10.70;;;8.30;99.90;;;;;;4908263;23;20498;-53
2021/11/15 11:15:34;;;;;;;21.07;10.40;;;8.30;99.90;;;;;;4921331;29;20458;-55
2021/11/15 11:18:16;;;;;;;28.10;11.17;;;8.40;99.90;;;;;;4915800;23;20510;-55
2021/11/15 11:26:40;;;;;;;22.30;9.50;;;8.30;99.90;;;;;;4906851;29;20433;-56
2021/11/15 11:29:13;;;;;;;28.27;10.30;;;8.40;99.90;;;;;;4934467;23;20490;-54
2021/11/15 11:31:43;;;;;;;22.80;10.47;;;8.40;99.90;;;;;;4906202;29;20718;-54
2021/11/15 11:34:10;;;;;;;15.87;8.30;;;8.40;99.90;;;;;;4912511;23;20494;-54
2021/11/15 11:36:39;;;;;;;29.27;9.77;;;8.40;99.90;;;;;;4905782;29;20565;-51
2021/11/15 11:39:08;;;;;;;21.87;10.70;;;8.50;99.90;;;;;;4901670;23;20888;-54
2021/11/15 11:41:38;;;;;;;19.10;9.30;;;8.40;99.90;;;;;;4887097;29;20463;-57
2021/11/15 11:44:11;;;;;;;27.80;10.50;;;8.50;99.90;;;;;;4914809;23;20494;-54
2021/11/15 11:46:39;;;;;;;23.37;11.00;;;8.50;99.90;;;;;;4906760;29;20510;-56
2021/11/15 11:49:09;;;;;;;25.07;12.63;;;8.50;99.90;;;;;;4915271;23;20529;-53
2021/11/15 11:51:38;;;;;;;24.10;12.17;;;8.50;99.90;;;;;;4909232;29;20506;-54
2021/11/15 11:56:41;;;;;;;25.00;10.93;;;8.50;99.90;;;;;;5713774;23;20895;-56
2021/11/15 11:59:14;;;;;;;16.10;9.33;;;8.50;99.90;;;;;;4912064;23;20497;-52
2021/11/15 12:01:54;;;;;;;23.43;10.37;;;8.50;99.90;;;;;;4910687;29;20470;-56
2021/11/15 12:14:43;;;;;;;29.70;11.80;;;8.50;99.90;;;;;;5380327;23;20492;-57
2021/11/15 12:17:14;;;;;;;24.80;11.50;;;8.50;99.90;;;;;;4911011;29;20458;-47
2021/11/15 12:20:06;;;;;;;18.30;10.97;;;8.50;99.90;;;;;;4922873;23;20544;-57
2021/11/15 12:25:30;;;;;;;30.47;11.77;;;8.60;99.90;;;;;;4924577;23;20478;-46
2021/11/15 12:30:48;;;;;;;23.30;10.80;;;8.50;99.90;;;;;;4928170;23;20513;-55
2021/11/15 12:36:07;;;;;;;31.47;12.37;;;8.40;99.90;;;;;;4967099;23;20477;-59
2021/11/15 12:38:41;;;;;;;21.40;10.43;;;8.40;99.90;;;;;;4915105;23;20518;-56
2021/11/15 12:41:37;;;;;;;29.30;10.87;;;8.40;99.90;;;;;;4871378;29;20448;-61
2021/11/15 12:44:30;;;;;;;21.77;10.93;;;8.40;99.90;;;;;;4862195;29;20491;-55
2021/11/15 12:47:05;;;;;;;34.83;10.57;;;8.40;99.90;;;;;;4866672;29;20532;-56
2021/11/15 12:49:37;;;;;;;25.63;11.00;;;8.40;99.90;;;;;;4871305;29;20531;-51
2021/11/15 12:52:34;;;;;;;22.07;10.27;;;8.30;99.90;;;;;;4870780;29;20492;-56
2021/11/15 12:55:09;;;;;;;23.23;12.40;;;8.40;99.90;;;;;;4868054;29;20452;-56
2021/11/15 12:57:52;;;;;;;30.93;10.47;;;8.40;99.90;;;;;;4871943;29;20451;-50
2021/11/15 13:00:25;;;;;;;17.67;9.70;;;8.40;99.90;;;;;;4868735;29;20965;-55
2021/11/15 13:02:55;;;;;;;27.40;11.47;;;8.40;99.90;;;;;;4868480;29;20926;-52
2021/11/15 13:05:24;;;;;;;22.10;9.70;;;8.40;99.90;;;;;;4868176;29;20465;-56
2021/11/15 13:07:53;;;;;;;24.20;10.93;;;8.30;99.90;;;;;;4867511;29;20452;-53
2021/11/15 13:10:21;;;;;;;25.90;12.30;;;8.40;99.90;;;;;;4869933;29;20437;-55
2021/11/15 13:12:48;;;;;;;19.87;10.33;;;8.40;99.90;;;;;;4871525;29;20464;-56
2021/11/15 13:15:15;;;;;;;26.40;11.70;;;8.40;99.90;;;;;;4867483;29;20968;-54
2021/11/15 13:17:41;;;;;;;14.80;8.77;;;8.30;99.90;;;;;;4868003;29;20520;-56
2021/11/15 13:20:12;;;;;;;25.77;11.17;;;8.30;99.90;;;;;;4867022;29;20492;-56
2021/11/15 13:22:39;;;;;;;24.30;9.93;;;8.40;99.90;;;;;;4868043;29;20456;-52
2021/11/15 13:27:54;;;;;;;24.03;11.10;;;8.40;99.90;;;;;;4911342;23;20485;-54
2021/11/15 13:33:04;;;;;;;21.30;10.60;;;8.40;99.90;;;;;;4918796;23;20498;-55
2021/11/15 13:35:31;;;;;;;20.97;9.87;;;8.40;99.90;;;;;;4894518;29;20451;-52
2021/11/15 13:38:01;;;;;;;22.00;10.37;;;8.30;99.90;;;;;;4932282;23;20502;-49